Aviation Digital Data Service (ADDS)

Output produced by METARs form (1445 UTC 19 January 2019)
found at http://www.aviationweather.gov/metar/data/
 
Forecast for: TNCM (ST MAARTEN JULIA, VI)
Text: TNCM 191125Z 1912/2012 07008KT P6SM FEW019
Forecast period: 1200 to 1400 UTC 19 January 2019
Forecast type: FROM: standard forecast or significant change
Winds: from the ENE (70 degrees) at 9 MPH (8 knots; 4.1 m/s)
Visibility: 6 or more miles 10+ km)
Ceiling: at least 12,000 feet AGL
Clouds: few clouds at 1900 feet AGL
Weather: no significant weather forecast for this period
Text: FM191400 09011KT P6SM FEW020
Forecast period: 1400 to 2300 UTC 19 January 2019
Forecast type: FROM: standard forecast or significant change
Winds: from the E (90 degrees) at 13 MPH (11 knots; 5.7 m/s)
Visibility: 6 or more miles 10+ km)
Ceiling: at least 12,000 feet AGL
Clouds: few clouds at 2000 feet AGL
Weather: no significant weather forecast for this period
Text: FM192300 08008KT P6SM SCT020
Forecast period: 2300 UTC 19 January 2019 to 1200 UTC 20 January 2019
Forecast type: FROM: standard forecast or significant change
Winds: from the E (80 degrees) at 9 MPH (8 knots; 4.1 m/s)
Visibility: 6 or more miles 10+ km)
Ceiling: at least 12,000 feet AGL
Clouds: scattered clouds at 2000 feet AGL
Weather: no significant weather forecast for this period